Time;durP1;ratioP1;P1;durP2;ratioP2;P2;SDS_P1;SDS_P2;PMS_P1;PMS_P2;Temp;Humidity;BMP_temperature;BMP_pressure;BME280_temperature;BME280_humidity;BME280_pressure;Samples;Min_cycle;Max_cycle;Signal;HPM_P1;HPM_P2
2022/10/24 00:01:46;;;;;;;;;;;;;;;;;;5047127;28;20018;-57
2022/10/24 00:04:12;;;;;;;;;;;;;;;;;;5046944;28;19979;-57
2022/10/24 00:06:38;;;;;;;;;;;;;;;;;;5047916;28;20290;-58
2022/10/24 00:09:04;;;;;;;;;;;;;;;;;;5047324;28;20029;-57
2022/10/24 00:11:30;;;;;;;;;;;;;;;;;;5047477;28;20382;-57
2022/10/24 00:13:56;;;;;;;;;;;;;;;;;;5047142;28;19928;-57
2022/10/24 00:16:22;;;;;;;;;;;;;;;;;;5047176;28;20331;-57
2022/10/24 00:18:48;;;;;;;;;;;;;;;;;;5047584;28;20025;-57
2022/10/24 00:21:14;;;;;;;;;;;;;;;;;;5047307;28;19925;-56
2022/10/24 00:23:40;;;;;;;;;;;;;;;;;;5047570;28;19928;-56
2022/10/24 00:26:06;;;;;;;;;;;;;;;;;;5046994;28;19929;-56
2022/10/24 00:28:32;;;;;;;;;;;;;;;;;;5046929;28;19991;-57
2022/10/24 00:30:58;;;;;;;;;;;;;;;;;;5046268;28;19921;-56
2022/10/24 00:33:24;;;;;;;;;;;;;;;;;;5047515;28;20457;-56
2022/10/24 00:35:50;;;;;;;;;;;;;;;;;;5047520;28;20071;-57
2022/10/24 00:38:16;;;;;;;;;;;;;;;;;;5046799;28;20298;-56
2022/10/24 00:40:42;;;;;;;;;;;;;;;;;;5046702;28;19925;-57
2022/10/24 00:43:08;;;;;;;;;;;;;;;;;;5046507;28;20493;-57
2022/10/24 00:45:34;;;;;;;;;;;;;;;;;;5046551;28;19995;-56
2022/10/24 00:48:00;;;;;;;;;;;;;;;;;;5046694;28;20012;-57
2022/10/24 00:50:26;;;;;;;;;;;;;;;;;;5047101;28;20062;-57
2022/10/24 00:52:52;;;;;;;;;;;;;;;;;;5045684;28;19925;-57
2022/10/24 00:55:18;;;;;;;;;;;;;;;;;;5046355;28;19925;-57
2022/10/24 00:57:44;;;;;;;;;;;;;;;;;;5045972;28;19942;-57
2022/10/24 01:00:10;;;;;;;;;;;;;;;;;;5046058;28;20438;-56
2022/10/24 01:02:36;;;;;;;;;;;;;;;;;;5046835;28;20009;-56
2022/10/24 01:05:02;;;;;;;;;;;;;;;;;;5046023;28;19982;-56
2022/10/24 01:07:28;;;;;;;;;;;;;;;;;;5045486;28;20405;-58
2022/10/24 01:09:54;;;;;;;;;;;;;;;;;;5046591;28;19925;-56
2022/10/24 01:12:20;;;;;;;;;;;;;;;;;;5045397;28;19968;-58
2022/10/24 01:14:46;;;;;;;;;;;;;;;;;;5044763;28;19924;-55
2022/10/24 01:17:12;;;;;;;;;;;;;;;;;;5045582;28;19978;-57
2022/10/24 01:19:38;;;;;;;;;;;;;;;;;;5046776;28;19933;-56
2022/10/24 01:22:04;;;;;;;;;;;;;;;;;;5046520;28;19925;-57
2022/10/24 01:24:30;;;;;;;;;;;;;;;;;;5046699;28;19964;-57
2022/10/24 01:26:56;;;;;;;;;;;;;;;;;;5046755;28;19925;-57
2022/10/24 01:29:22;;;;;;;;;;;;;;;;;;5045750;28;19925;-57
2022/10/24 01:31:48;;;;;;;;;;;;;;;;;;5046107;28;19925;-57
2022/10/24 01:34:14;;;;;;;;;;;;;;;;;;5046144;28;20505;-56
2022/10/24 01:36:40;;;;;;;;;;;;;;;;;;5046461;28;19924;-56
2022/10/24 01:39:05;;;;;;;;;;;;;;;;;;5045704;28;19921;-57
2022/10/24 01:41:32;;;;;;;;;;;;;;;;;;5046213;28;20021;-56
2022/10/24 01:44:01;;;;;;;;;;;;;;;;;;5045045;28;19974;-56
2022/10/24 01:46:27;;;;;;;;;;;;;;;;;;5046572;28;19976;-59
2022/10/24 01:48:53;;;;;;;;;;;;;;;;;;5046895;28;20364;-57
2022/10/24 01:51:19;;;;;;;;;;;;;;;;;;5045784;28;19974;-57
2022/10/24 01:53:45;;;;;;;;;;;;;;;;;;5045640;28;20279;-56
2022/10/24 01:56:11;;;;;;;;;;;;;;;;;;5046480;28;19924;-56
2022/10/24 01:58:37;;;;;;;;;;;;;;;;;;5045375;28;19976;-56
2022/10/24 02:01:03;;;;;;;;;;;;;;;;;;5046156;28;19925;-57
2022/10/24 02:03:29;;;;;;;;;;;;;;;;;;5045927;28;19925;-56
2022/10/24 02:05:55;;;;;;;;;;;;;;;;;;5046653;28;20294;-57
2022/10/24 02:08:21;;;;;;;;;;;;;;;;;;5046085;28;19929;-57
2022/10/24 02:10:46;;;;;;;;;;;;;;;;;;5046377;28;19937;-57
2022/10/24 02:13:13;;;;;;;;;;;;;;;;;;5044690;28;19931;-57
2022/10/24 02:15:39;;;;;;;;;;;;;;;;;;5045898;28;19939;-57
2022/10/24 02:18:05;;;;;;;;;;;;;;;;;;5044685;28;19925;-56
2022/10/24 02:20:31;;;;;;;;;;;;;;;;;;5046229;28;19925;-57
2022/10/24 02:22:57;;;;;;;;;;;;;;;;;;5046169;28;19928;-57
2022/10/24 02:25:23;;;;;;;;;;;;;;;;;;5046082;28;20004;-57
2022/10/24 02:27:49;;;;;;;;;;;;;;;;;;5045819;28;19924;-57
2022/10/24 02:30:15;;;;;;;;;;;;;;;;;;5049051;28;19925;-57
2022/10/24 02:32:41;;;;;;;;;;;;;;;;;;5049373;28;20011;-56
2022/10/24 02:35:07;;;;;;;;;;;;;;;;;;5049375;28;20334;-57
2022/10/24 02:37:33;;;;;;;;;;;;;;;;;;5049475;28;19928;-56
2022/10/24 02:39:59;;;;;;;;;;;;;;;;;;5049288;28;19983;-56
2022/10/24 02:42:26;;;;;;;;;;;;;;;;;;5046956;28;19935;-56
2022/10/24 02:44:52;;;;;;;;;;;;;;;;;;5049533;28;20279;-57
2022/10/24 02:47:19;;;;;;;;;;;;;;;;;;5048959;28;19932;-57
2022/10/24 02:49:44;;;;;;;;;;;;;;;;;;5049274;28;19932;-56
2022/10/24 02:52:10;;;;;;;;;;;;;;;;;;5047166;28;19924;-57
2022/10/24 02:54:36;;;;;;;;;;;;;;;;;;5049061;28;19971;-57
2022/10/24 02:57:02;;;;;;;;;;;;;;;;;;5046236;28;19929;-59
2022/10/24 02:59:28;;;;;;;;;;;;;;;;;;5048649;28;19979;-57
2022/10/24 03:01:54;;;;;;;;;;;;;;;;;;5049508;28;19932;-57
2022/10/24 03:04:20;;;;;;;;;;;;;;;;;;5049019;28;20011;-57
2022/10/24 03:06:46;;;;;;;;;;;;;;;;;;5048936;28;19928;-57
2022/10/24 03:09:12;;;;;;;;;;;;;;;;;;5048549;28;20417;-57
2022/10/24 03:11:38;;;;;;;;;;;;;;;;;;5048083;28;19977;-56
2022/10/24 03:14:04;;;;;;;;;;;;;;;;;;5047105;28;19929;-57
2022/10/24 03:16:30;;;;;;;;;;;;;;;;;;5048663;28;19968;-57
2022/10/24 03:18:56;;;;;;;;;;;;;;;;;;5049286;28;19929;-55
2022/10/24 03:21:22;;;;;;;;;;;;;;;;;;5048821;28;19935;-57
2022/10/24 03:23:48;;;;;;;;;;;;;;;;;;5048877;28;20247;-57
2022/10/24 03:26:14;;;;;;;;;;;;;;;;;;5047701;28;19967;-57
2022/10/24 03:28:40;;;;;;;;;;;;;;;;;;5047664;28;20248;-57
2022/10/24 03:31:06;;;;;;;;;;;;;;;;;;5048307;28;19931;-57
2022/10/24 03:33:32;;;;;;;;;;;;;;;;;;5048162;28;19931;-57
2022/10/24 03:35:58;;;;;;;;;;;;;;;;;;5048395;28;19924;-57
2022/10/24 03:38:24;;;;;;;;;;;;;;;;;;5048222;28;20366;-58
2022/10/24 03:40:50;;;;;;;;;;;;;;;;;;5048355;28;19932;-57
2022/10/24 03:43:16;;;;;;;;;;;;;;;;;;5046895;28;20637;-57
2022/10/24 03:45:42;;;;;;;;;;;;;;;;;;5048198;28;20015;-57
2022/10/24 03:48:08;;;;;;;;;;;;;;;;;;5047939;28;19925;-57
2022/10/24 03:50:34;;;;;;;;;;;;;;;;;;5047702;28;19972;-57
2022/10/24 03:53:00;;;;;;;;;;;;;;;;;;5047419;28;20011;-56
2022/10/24 03:55:26;;;;;;;;;;;;;;;;;;5048597;28;19940;-53
2022/10/24 03:57:52;;;;;;;;;;;;;;;;;;5047160;28;20113;-57
2022/10/24 04:00:18;;;;;;;;;;;;;;;;;;5047511;28;20011;-56
2022/10/24 04:02:44;;;;;;;;;;;;;;;;;;5048125;28;20386;-56
2022/10/24 04:05:10;;;;;;;;;;;;;;;;;;5047606;28;19932;-56
2022/10/24 04:07:36;;;;;;;;;;;;;;;;;;5047441;28;19936;-58
2022/10/24 04:10:02;;;;;;;;;;;;;;;;;;5047433;28;19931;-57
2022/10/24 04:12:28;;;;;;;;;;;;;;;;;;5045914;28;19925;-57
2022/10/24 04:14:54;;;;;;;;;;;;;;;;;;5048068;28;19925;-57
2022/10/24 04:17:20;;;;;;;;;;;;;;;;;;5047543;28;19925;-57
2022/10/24 04:19:46;;;;;;;;;;;;;;;;;;5047425;28;20382;-56
2022/10/24 04:22:12;;;;;;;;;;;;;;;;;;5046816;28;20003;-57
2022/10/24 04:24:38;;;;;;;;;;;;;;;;;;5047105;28;19925;-56
2022/10/24 04:27:04;;;;;;;;;;;;;;;;;;5045675;28;19932;-56
2022/10/24 04:29:30;;;;;;;;;;;;;;;;;;5047464;28;19925;-55
2022/10/24 04:31:56;;;;;;;;;;;;;;;;;;5047878;28;19928;-58
2022/10/24 04:34:22;;;;;;;;;;;;;;;;;;5047846;28;19929;-57
2022/10/24 04:36:48;;;;;;;;;;;;;;;;;;5047269;28;19970;-57
2022/10/24 04:39:14;;;;;;;;;;;;;;;;;;5047161;28;20623;-57
2022/10/24 04:41:40;;;;;;;;;;;;;;;;;;5046600;28;19932;-57
2022/10/24 04:44:06;;;;;;;;;;;;;;;;;;5046125;28;19932;-57
2022/10/24 04:46:32;;;;;;;;;;;;;;;;;;5047107;28;19924;-57
2022/10/24 04:48:58;;;;;;;;;;;;;;;;;;5046708;28;20583;-57
2022/10/24 04:51:24;;;;;;;;;;;;;;;;;;5046661;28;19932;-56
2022/10/24 04:53:50;;;;;;;;;;;;;;;;;;5045366;28;19924;-57
2022/10/24 04:56:16;;;;;;;;;;;;;;;;;;5046268;28;20371;-56
2022/10/24 04:58:42;;;;;;;;;;;;;;;;;;5046442;28;19929;-56
2022/10/24 05:01:08;;;;;;;;;;;;;;;;;;5046795;28;19929;-57
2022/10/24 05:03:34;;;;;;;;;;;;;;;;;;5041966;28;19932;-56
2022/10/24 05:06:00;;;;;;;;;;;;;;;;;;5045945;28;20393;-58
2022/10/24 05:08:27;;;;;;;;;;;;;;;;;;5045132;28;19957;-58
2022/10/24 05:10:52;;;;;;;;;;;;;;;;;;5046491;28;19925;-57
2022/10/24 05:13:18;;;;;;;;;;;;;;;;;;5045763;28;19932;-57
2022/10/24 05:15:45;;;;;;;;;;;;;;;;;;5046648;28;20362;-58
2022/10/24 05:18:11;;;;;;;;;;;;;;;;;;5046245;28;20471;-56
2022/10/24 05:20:37;;;;;;;;;;;;;;;;;;5046648;28;19982;-55
2022/10/24 05:23:03;;;;;;;;;;;;;;;;;;5046271;28;19929;-57
2022/10/24 05:25:29;;;;;;;;;;;;;;;;;;5046171;28;19932;-56
2022/10/24 05:27:55;;;;;;;;;;;;;;;;;;5045791;28;19939;-57
2022/10/24 05:30:21;;;;;;;;;;;;;;;;;;5041024;28;19925;-57
2022/10/24 05:32:47;;;;;;;;;;;;;;;;;;5044037;28;19940;-56
2022/10/24 05:35:13;;;;;;;;;;;;;;;;;;5040817;28;19931;-56
2022/10/24 05:37:40;;;;;;;;;;;;;;;;;;5033440;28;20325;-57
2022/10/24 05:40:06;;;;;;;;;;;;;;;;;;5034252;28;19979;-57
2022/10/24 05:42:32;;;;;;;;;;;;;;;;;;5039165;28;19929;-57
2022/10/24 05:44:58;;;;;;;;;;;;;;;;;;5036977;28;19927;-57
2022/10/24 05:47:24;;;;;;;;;;;;;;;;;;5044411;28;19924;-57
2022/10/24 05:49:50;;;;;;;;;;;;;;;;;;5044165;28;19931;-57
2022/10/24 05:52:16;;;;;;;;;;;;;;;;;;5044433;28;20390;-57
2022/10/24 05:54:42;;;;;;;;;;;;;;;;;;5045201;28;19933;-57
2022/10/24 05:57:08;;;;;;;;;;;;;;;;;;5043436;28;19925;-57
2022/10/24 05:59:34;;;;;;;;;;;;;;;;;;5042405;28;19967;-56
2022/10/24 06:02:00;;;;;;;;;;;;;;;;;;5044633;28;20378;-55
2022/10/24 06:04:26;;;;;;;;;;;;;;;;;;5049298;28;19943;-57
2022/10/24 06:06:52;;;;;;;;;;;;;;;;;;5049115;28;19936;-57
2022/10/24 06:09:18;;;;;;;;;;;;;;;;;;5047685;28;19921;-57
2022/10/24 06:11:44;;;;;;;;;;;;;;;;;;5047361;28;19925;-56
2022/10/24 06:14:10;;;;;;;;;;;;;;;;;;5048406;28;19925;-56
2022/10/24 06:16:36;;;;;;;;;;;;;;;;;;5048824;28;19925;-57
2022/10/24 06:19:02;;;;;;;;;;;;;;;;;;5049219;28;20010;-57
2022/10/24 06:21:28;;;;;;;;;;;;;;;;;;5048934;28;20398;-58
2022/10/24 06:23:54;;;;;;;;;;;;;;;;;;5049059;28;19995;-57
2022/10/24 06:26:20;;;;;;;;;;;;;;;;;;5048521;28;19925;-57
2022/10/24 06:28:46;;;;;;;;;;;;;;;;;;5048100;28;19931;-57
2022/10/24 06:31:12;;;;;;;;;;;;;;;;;;5048749;28;19931;-57
2022/10/24 06:33:38;;;;;;;;;;;;;;;;;;5048553;28;20029;-57
2022/10/24 06:36:04;;;;;;;;;;;;;;;;;;5046545;28;20382;-57
2022/10/24 06:38:30;;;;;;;;;;;;;;;;;;5048762;28;19970;-57
2022/10/24 06:40:56;;;;;;;;;;;;;;;;;;5048666;28;19982;-56
2022/10/24 06:43:22;;;;;;;;;;;;;;;;;;5047798;28;20004;-56
2022/10/24 06:45:48;;;;;;;;;;;;;;;;;;5048637;28;19944;-57
2022/10/24 06:48:14;;;;;;;;;;;;;;;;;;5048345;28;20007;-57
2022/10/24 06:50:40;;;;;;;;;;;;;;;;;;5048567;28;20333;-56
2022/10/24 06:53:06;;;;;;;;;;;;;;;;;;5048102;28;19931;-57
2022/10/24 06:55:32;;;;;;;;;;;;;;;;;;5047844;28;19929;-57
2022/10/24 06:57:58;;;;;;;;;;;;;;;;;;5047741;28;19920;-57
2022/10/24 07:00:24;;;;;;;;;;;;;;;;;;5048259;28;19980;-57
2022/10/24 07:02:50;;;;;;;;;;;;;;;;;;5047479;28;19948;-57
2022/10/24 07:05:16;;;;;;;;;;;;;;;;;;5048035;28;19920;-57
2022/10/24 07:07:42;;;;;;;;;;;;;;;;;;5048264;28;19954;-58
2022/10/24 07:10:08;;;;;;;;;;;;;;;;;;5047730;28;19928;-57
2022/10/24 07:12:34;;;;;;;;;;;;;;;;;;5046900;28;19972;-56
2022/10/24 07:15:00;;;;;;;;;;;;;;;;;;5047254;28;20447;-57
2022/10/24 07:17:26;;;;;;;;;;;;;;;;;;5048305;28;19921;-56
2022/10/24 07:19:52;;;;;;;;;;;;;;;;;;5048180;28;19929;-57
2022/10/24 07:22:18;;;;;;;;;;;;;;;;;;5047325;28;19921;-57
2022/10/24 07:24:45;;;;;;;;;;;;;;;;;;5048123;28;20336;-57
2022/10/24 07:27:11;;;;;;;;;;;;;;;;;;5046998;28;19925;-56
2022/10/24 07:29:37;;;;;;;;;;;;;;;;;;5047856;28;19921;-55
2022/10/24 07:32:03;;;;;;;;;;;;;;;;;;5047395;28;19925;-58
2022/10/24 07:34:29;;;;;;;;;;;;;;;;;;5047639;28;19986;-57
2022/10/24 07:36:55;;;;;;;;;;;;;;;;;;5048069;28;20418;-57
2022/10/24 07:39:21;;;;;;;;;;;;;;;;;;5047433;28;19977;-57
2022/10/24 07:41:47;;;;;;;;;;;;;;;;;;5044873;28;19929;-57
2022/10/24 07:44:13;;;;;;;;;;;;;;;;;;5046950;28;19925;-56
2022/10/24 07:46:39;;;;;;;;;;;;;;;;;;5047179;28;19933;-56
2022/10/24 07:49:05;;;;;;;;;;;;;;;;;;5047068;28;19925;-57
2022/10/24 07:51:31;;;;;;;;;;;;;;;;;;5047123;28;19967;-57
2022/10/24 07:53:57;;;;;;;;;;;;;;;;;;5047574;28;19972;-58
2022/10/24 07:56:23;;;;;;;;;;;;;;;;;;5045248;28;19933;-57
2022/10/24 07:58:49;;;;;;;;;;;;;;;;;;5046975;28;19925;-56
2022/10/24 08:01:15;;;;;;;;;;;;;;;;;;5046155;28;19986;-57
2022/10/24 08:03:41;;;;;;;;;;;;;;;;;;5046791;28;19936;-57
2022/10/24 08:06:07;;;;;;;;;;;;;;;;;;5046312;28;19966;-56
2022/10/24 08:08:33;;;;;;;;;;;;;;;;;;5046844;28;19925;-57
2022/10/24 08:10:59;;;;;;;;;;;;;;;;;;5046402;28;19973;-56
2022/10/24 08:13:25;;;;;;;;;;;;;;;;;;5046466;28;20529;-57
2022/10/24 08:15:51;;;;;;;;;;;;;;;;;;5046204;28;19925;-56
2022/10/24 08:18:17;;;;;;;;;;;;;;;;;;5045928;28;19928;-57
2022/10/24 08:20:43;;;;;;;;;;;;;;;;;;5046094;28;19929;-56
2022/10/24 08:23:09;;;;;;;;;;;;;;;;;;5046156;28;19964;-58
2022/10/24 08:25:35;;;;;;;;;;;;;;;;;;5046619;28;20438;-57
2022/10/24 08:28:01;;;;;;;;;;;;;;;;;;5045135;28;19924;-56
2022/10/24 08:30:27;;;;;;;;;;;;;;;;;;5046498;28;20655;-58
2022/10/24 08:32:53;;;;;;;;;;;;;;;;;;5046755;28;19924;-55
2022/10/24 08:35:20;;;;;;;;;;;;;;;;;;5045975;28;19977;-57
2022/10/24 08:37:46;;;;;;;;;;;;;;;;;;5045593;28;19989;-55
2022/10/24 08:40:14;;;;;;;;;;;;;;;;;;5045657;28;19925;-57
2022/10/24 08:42:40;;;;;;;;;;;;;;;;;;5045399;28;20456;-56
2022/10/24 08:45:06;;;;;;;;;;;;;;;;;;5044194;28;19972;-57
2022/10/24 08:47:32;;;;;;;;;;;;;;;;;;5044522;28;19924;-57
2022/10/24 08:49:58;;;;;;;;;;;;;;;;;;5046064;28;20019;-59
2022/10/24 08:52:24;;;;;;;;;;;;;;;;;;5045919;28;19933;-57
2022/10/24 08:54:52;;;;;;;;;;;;;;;;;;5025303;28;21214;-57
2022/10/24 08:57:18;;;;;;;;;;;;;;;;;;5024808;28;20033;-56
2022/10/24 08:59:44;;;;;;;;;;;;;;;;;;5025923;28;20601;-57
2022/10/24 09:02:10;;;;;;;;;;;;;;;;;;5025251;28;19925;-58
2022/10/24 09:04:36;;;;;;;;;;;;;;;;;;5023944;28;20374;-57
2022/10/24 09:07:02;;;;;;;;;;;;;;;;;;5025577;28;19925;-57
2022/10/24 09:09:28;;;;;;;;;;;;;;;;;;5025975;28;19929;-58
2022/10/24 09:11:54;;;;;;;;;;;;;;;;;;5020788;28;19933;-58
2022/10/24 09:14:20;;;;;;;;;;;;;;;;;;5024793;28;19925;-56
2022/10/24 09:16:46;;;;;;;;;;;;;;;;;;5025601;28;20527;-57
2022/10/24 09:19:12;;;;;;;;;;;;;;;;;;5025332;28;19943;-57
2022/10/24 09:21:38;;;;;;;;;;;;;;;;;;5023827;28;19933;-57
2022/10/24 09:24:04;;;;;;;;;;;;;;;;;;5025426;28;19925;-56
2022/10/24 09:26:30;;;;;;;;;;;;;;;;;;5023863;28;19929;-57
2022/10/24 09:28:57;;;;;;;;;;;;;;;;;;5025957;28;19996;-57
2022/10/24 09:31:23;;;;;;;;;;;;;;;;;;5021844;28;19928;-57
2022/10/24 09:33:50;;;;;;;;;;;;;;;;;;5025522;28;19987;-57
2022/10/24 09:36:16;;;;;;;;;;;;;;;;;;5025338;28;20031;-58
2022/10/24 09:38:42;;;;;;;;;;;;;;;;;;5029434;28;19995;-58
2022/10/24 09:41:08;;;;;;;;;;;;;;;;;;5027861;28;20673;-57
2022/10/24 09:43:34;;;;;;;;;;;;;;;;;;5029165;28;20063;-56
2022/10/24 09:46:00;;;;;;;;;;;;;;;;;;5029030;28;19929;-56
2022/10/24 09:48:26;;;;;;;;;;;;;;;;;;5029573;28;19925;-57
2022/10/24 09:50:52;;;;;;;;;;;;;;;;;;5030009;28;19932;-58
2022/10/24 09:53:18;;;;;;;;;;;;;;;;;;5028394;28;19933;-57
2022/10/24 09:55:45;;;;;;;;;;;;;;;;;;5028423;28;19925;-57
2022/10/24 09:58:11;;;;;;;;;;;;;;;;;;5027954;28;20473;-58
2022/10/24 10:00:38;;;;;;;;;;;;;;;;;;5029431;28;19925;-57
2022/10/24 10:03:04;;;;;;;;;;;;;;;;;;5028753;28;19933;-57
2022/10/24 10:05:30;;;;;;;;;;;;;;;;;;5028860;28;19925;-57
2022/10/24 10:07:56;;;;;;;;;;;;;;;;;;5028937;28;19932;-57
2022/10/24 10:10:22;;;;;;;;;;;;;;;;;;5027986;28;19925;-58
2022/10/24 10:12:48;;;;;;;;;;;;;;;;;;5027316;28;19926;-57
2022/10/24 10:15:14;;;;;;;;;;;;;;;;;;5028590;28;20062;-57
2022/10/24 10:17:40;;;;;;;;;;;;;;;;;;5028657;28;19929;-58
2022/10/24 10:20:06;;;;;;;;;;;;;;;;;;5027954;28;20030;-58
2022/10/24 10:22:32;;;;;;;;;;;;;;;;;;5028326;28;19925;-57
2022/10/24 10:24:58;;;;;;;;;;;;;;;;;;5027922;28;19929;-59
2022/10/24 10:27:24;;;;;;;;;;;;;;;;;;5028463;28;19925;-57
2022/10/24 10:29:50;;;;;;;;;;;;;;;;;;5028307;28;19925;-56
2022/10/24 10:32:16;;;;;;;;;;;;;;;;;;5028436;28;19925;-57
2022/10/24 10:34:42;;;;;;;;;;;;;;;;;;5028108;28;20367;-57
2022/10/24 10:37:08;;;;;;;;;;;;;;;;;;5024786;28;19929;-57
2022/10/24 10:39:33;;;;;;;;;;;;;;;;;;5027419;28;19921;-56
2022/10/24 10:41:59;;;;;;;;;;;;;;;;;;5027285;28;20498;-57
2022/10/24 10:44:25;;;;;;;;;;;;;;;;;;5028242;28;19921;-57
2022/10/24 10:46:51;;;;;;;;;;;;;;;;;;5028243;28;19948;-56
2022/10/24 10:49:17;;;;;;;;;;;;;;;;;;5026751;28;19932;-58
2022/10/24 10:51:44;;;;;;;;;;;;;;;;;;5027588;28;20334;-57
2022/10/24 10:54:09;;;;;;;;;;;;;;;;;;5026168;28;20011;-58
2022/10/24 10:56:35;;;;;;;;;;;;;;;;;;5027507;28;20016;-57
2022/10/24 10:59:01;;;;;;;;;;;;;;;;;;5027714;28;19940;-57
2022/10/24 11:01:27;;;;;;;;;;;;;;;;;;5027622;28;19925;-57
2022/10/24 11:03:53;;;;;;;;;;;;;;;;;;5028061;28;19925;-57
2022/10/24 11:06:20;;;;;;;;;;;;;;;;;;5027446;28;19932;-57
2022/10/24 11:08:46;;;;;;;;;;;;;;;;;;5025667;28;19944;-57
2022/10/24 11:11:12;;;;;;;;;;;;;;;;;;5025646;28;19995;-56
2022/10/24 11:13:38;;;;;;;;;;;;;;;;;;5027029;28;20465;-59
2022/10/24 11:16:04;;;;;;;;;;;;;;;;;;5027708;28;19925;-58
2022/10/24 11:18:30;;;;;;;;;;;;;;;;;;5022995;28;19933;-57
2022/10/24 11:20:56;;;;;;;;;;;;;;;;;;5022513;28;20364;-58
2022/10/24 11:23:22;;;;;;;;;;;;;;;;;;5024789;28;19929;-57
2022/10/24 11:25:48;;;;;;;;;;;;;;;;;;5024278;28;19948;-57
2022/10/24 11:28:14;;;;;;;;;;;;;;;;;;5023024;28;20427;-58
2022/10/24 11:30:40;;;;;;;;;;;;;;;;;;5024513;28;19989;-58
2022/10/24 11:33:08;;;;;;;;;;;;;;;;;;5023886;28;19929;-56
2022/10/24 11:35:39;;;;;;;;;;;;;;;;;;5024590;28;20003;-59
2022/10/24 11:38:05;;;;;;;;;;;;;;;;;;5024657;28;19983;-57
2022/10/24 11:40:31;;;;;;;;;;;;;;;;;;5024949;28;19929;-57
2022/10/24 11:42:57;;;;;;;;;;;;;;;;;;5022622;28;19925;-58
2022/10/24 11:45:23;;;;;;;;;;;;;;;;;;5023225;28;20353;-57
2022/10/24 11:47:49;;;;;;;;;;;;;;;;;;5026938;28;19926;-56
2022/10/24 11:50:15;;;;;;;;;;;;;;;;;;5026184;28;19925;-58
2022/10/24 11:52:41;;;;;;;;;;;;;;;;;;5026715;28;20004;-57
2022/10/24 11:55:07;;;;;;;;;;;;;;;;;;5026983;28;20291;-57
2022/10/24 11:57:33;;;;;;;;;;;;;;;;;;5025882;28;19925;-58
2022/10/24 11:59:59;;;;;;;;;;;;;;;;;;5026168;28;20365;-56
2022/10/24 12:02:25;;;;;;;;;;;;;;;;;;5027026;28;19925;-58
2022/10/24 12:04:51;;;;;;;;;;;;;;;;;;5026175;28;19937;-57
2022/10/24 12:07:17;;;;;;;;;;;;;;;;;;5025965;28;20026;-57
2022/10/24 12:09:43;;;;;;;;;;;;;;;;;;5026598;28;19921;-58
2022/10/24 12:12:09;;;;;;;;;;;;;;;;;;5025285;28;19925;-57
2022/10/24 12:14:35;;;;;;;;;;;;;;;;;;5026609;28;20020;-57
2022/10/24 12:17:01;;;;;;;;;;;;;;;;;;5025899;28;20044;-57
2022/10/24 12:19:27;;;;;;;;;;;;;;;;;;5026026;28;19964;-56
2022/10/24 12:21:53;;;;;;;;;;;;;;;;;;5026835;28;19983;-57
2022/10/24 12:24:19;;;;;;;;;;;;;;;;;;5026095;28;19940;-58
2022/10/24 12:26:45;;;;;;;;;;;;;;;;;;5025472;28;19929;-56
2022/10/24 12:29:11;;;;;;;;;;;;;;;;;;5026217;28;20371;-57
2022/10/24 12:31:37;;;;;;;;;;;;;;;;;;5026117;28;20008;-57
2022/10/24 12:34:03;;;;;;;;;;;;;;;;;;5025628;28;19979;-57
2022/10/24 12:36:29;;;;;;;;;;;;;;;;;;5025661;28;19949;-58
2022/10/24 12:38:55;;;;;;;;;;;;;;;;;;5026750;28;20016;-57
2022/10/24 12:41:21;;;;;;;;;;;;;;;;;;5023722;28;19961;-57
2022/10/24 12:43:47;;;;;;;;;;;;;;;;;;5026008;28;19929;-58
2022/10/24 12:46:13;;;;;;;;;;;;;;;;;;5025740;28;19965;-57
2022/10/24 12:48:39;;;;;;;;;;;;;;;;;;5024276;28;20378;-58
2022/10/24 12:51:05;;;;;;;;;;;;;;;;;;5025555;28;20008;-57
2022/10/24 12:53:31;;;;;;;;;;;;;;;;;;5025589;28;19925;-57
2022/10/24 12:55:57;;;;;;;;;;;;;;;;;;5025410;28;19931;-58
2022/10/24 12:58:23;;;;;;;;;;;;;;;;;;5026627;28;20322;-57
2022/10/24 13:00:49;;;;;;;;;;;;;;;;;;5025450;28;20339;-52
2022/10/24 13:03:15;;;;;;;;;;;;;;;;;;5020683;28;20442;-57
2022/10/24 13:05:41;;;;;;;;;;;;;;;;;;5020108;28;19933;-57
2022/10/24 13:08:07;;;;;;;;;;;;;;;;;;5023113;28;20460;-58
2022/10/24 13:10:33;;;;;;;;;;;;;;;;;;5022764;28;19929;-57
2022/10/24 13:12:59;;;;;;;;;;;;;;;;;;5022001;28;19929;-57
2022/10/24 13:15:25;;;;;;;;;;;;;;;;;;5022998;28;19941;-55
2022/10/24 13:17:52;;;;;;;;;;;;;;;;;;5020786;28;19987;-55
2022/10/24 13:20:18;;;;;;;;;;;;;;;;;;5023382;28;19956;-56
2022/10/24 13:22:44;;;;;;;;;;;;;;;;;;5019742;28;19964;-56
2022/10/24 13:25:10;;;;;;;;;;;;;;;;;;5021851;28;19960;-55
2022/10/24 13:27:36;;;;;;;;;;;;;;;;;;5022631;28;20268;-56
2022/10/24 13:30:02;;;;;;;;;;;;;;;;;;5024110;28;19975;-56
2022/10/24 13:32:28;;;;;;;;;;;;;;;;;;5025015;28;19936;-57
2022/10/24 13:34:54;;;;;;;;;;;;;;;;;;5025646;28;19925;-55
2022/10/24 13:37:20;;;;;;;;;;;;;;;;;;5024469;28;19932;-57
2022/10/24 13:39:46;;;;;;;;;;;;;;;;;;5024837;28;19972;-57
2022/10/24 13:42:12;;;;;;;;;;;;;;;;;;5024574;28;19972;-57
2022/10/24 13:44:38;;;;;;;;;;;;;;;;;;5023692;28;19931;-58
2022/10/24 13:47:05;;;;;;;;;;;;;;;;;;5024084;28;19971;-57
2022/10/24 13:49:31;;;;;;;;;;;;;;;;;;5023387;28;20378;-56
2022/10/24 13:51:57;;;;;;;;;;;;;;;;;;5025110;28;19925;-58
2022/10/24 13:54:23;;;;;;;;;;;;;;;;;;5025072;28;19929;-57
2022/10/24 13:56:49;;;;;;;;;;;;;;;;;;5020754;28;19933;-57
2022/10/24 13:59:15;;;;;;;;;;;;;;;;;;5024718;28;20053;-56
2022/10/24 14:01:41;;;;;;;;;;;;;;;;;;5022809;28;19921;-57
2022/10/24 14:04:07;;;;;;;;;;;;;;;;;;5025369;28;19925;-57
2022/10/24 14:06:33;;;;;;;;;;;;;;;;;;5024232;28;19922;-57
2022/10/24 14:08:59;;;;;;;;;;;;;;;;;;5024585;28;19925;-57
2022/10/24 14:11:25;;;;;;;;;;;;;;;;;;5022962;28;19970;-58
2022/10/24 14:13:52;;;;;;;;;;;;;;;;;;5018929;28;19925;-57
2022/10/24 14:16:18;;;;;;;;;;;;;;;;;;5010650;28;19925;-57
2022/10/24 14:18:44;;;;;;;;;;;;;;;;;;5021162;28;19921;-57
2022/10/24 14:21:10;;;;;;;;;;;;;;;;;;5024591;28;19925;-58
2022/10/24 14:23:36;;;;;;;;;;;;;;;;;;5026511;28;19933;-56
2022/10/24 14:26:02;;;;;;;;;;;;;;;;;;5027452;28;19928;-57
2022/10/24 14:28:28;;;;;;;;;;;;;;;;;;5027952;28;19925;-57
2022/10/24 14:30:54;;;;;;;;;;;;;;;;;;5028862;28;19935;-57
2022/10/24 14:33:20;;;;;;;;;;;;;;;;;;5027967;28;19925;-56
2022/10/24 14:35:46;;;;;;;;;;;;;;;;;;5028471;28;20022;-57
2022/10/24 14:38:12;;;;;;;;;;;;;;;;;;5027961;28;19968;-57
2022/10/24 14:40:38;;;;;;;;;;;;;;;;;;5026458;28;20389;-57
2022/10/24 14:43:04;;;;;;;;;;;;;;;;;;5027592;28;19925;-57
2022/10/24 14:45:30;;;;;;;;;;;;;;;;;;5028073;28;20598;-56
2022/10/24 14:47:56;;;;;;;;;;;;;;;;;;5028408;28;19936;-57
2022/10/24 14:50:22;;;;;;;;;;;;;;;;;;5027774;28;19979;-56
2022/10/24 14:52:48;;;;;;;;;;;;;;;;;;5027704;28;19927;-57
2022/10/24 14:55:14;;;;;;;;;;;;;;;;;;5027176;28;19925;-56
2022/10/24 14:57:40;;;;;;;;;;;;;;;;;;5026797;28;20024;-56
2022/10/24 15:00:06;;;;;;;;;;;;;;;;;;5027351;28;20008;-57
2022/10/24 15:02:32;;;;;;;;;;;;;;;;;;5027984;28;20037;-57
2022/10/24 15:04:58;;;;;;;;;;;;;;;;;;5025751;28;20015;-56
2022/10/24 15:07:24;;;;;;;;;;;;;;;;;;5028574;28;20431;-56
2022/10/24 15:09:50;;;;;;;;;;;;;;;;;;5028190;28;19925;-56
2022/10/24 15:12:16;;;;;;;;;;;;;;;;;;5026167;28;20335;-57
2022/10/24 15:14:47;;;;;;;;;;;;;;;;;;5027623;28;20008;-58
2022/10/24 15:17:13;;;;;;;;;;;;;;;;;;5024040;28;19932;-57
2022/10/24 15:19:40;;;;;;;;;;;;;;;;;;5027632;28;19990;-56
2022/10/24 15:22:06;;;;;;;;;;;;;;;;;;5026910;28;19929;-57
2022/10/24 15:24:32;;;;;;;;;;;;;;;;;;5026405;28;19932;-57
2022/10/24 15:26:58;;;;;;;;;;;;;;;;;;5022389;28;19925;-58
2022/10/24 15:29:25;;;;;;;;;;;;;;;;;;5028108;28;19925;-57
2022/10/24 15:31:51;;;;;;;;;;;;;;;;;;5027457;28;19932;-57
2022/10/24 15:34:17;;;;;;;;;;;;;;;;;;5026177;28;19929;-58
2022/10/24 15:36:43;;;;;;;;;;;;;;;;;;5027525;28;20016;-56
2022/10/24 15:39:09;;;;;;;;;;;;;;;;;;5027115;28;19996;-58
2022/10/24 15:41:35;;;;;;;;;;;;;;;;;;5026289;28;19933;-57
2022/10/24 15:44:01;;;;;;;;;;;;;;;;;;5024971;28;20582;-57
2022/10/24 15:46:28;;;;;;;;;;;;;;;;;;5025174;28;19925;-58
2022/10/24 15:48:54;;;;;;;;;;;;;;;;;;5016663;28;20438;-56
2022/10/24 15:51:20;;;;;;;;;;;;;;;;;;5008424;28;20015;-58
2022/10/24 15:53:46;;;;;;;;;;;;;;;;;;5013828;28;19925;-57
2022/10/24 15:56:12;;;;;;;;;;;;;;;;;;5010730;28;19937;-56
2022/10/24 15:58:38;;;;;;;;;;;;;;;;;;5017839;28;19932;-57
2022/10/24 16:01:04;;;;;;;;;;;;;;;;;;5017885;28;19944;-57
2022/10/24 16:03:30;;;;;;;;;;;;;;;;;;5016702;28;19972;-56
2022/10/24 16:05:57;;;;;;;;;;;;;;;;;;5016657;28;19960;-57
2022/10/24 16:08:23;;;;;;;;;;;;;;;;;;5017701;28;19925;-56
2022/10/24 16:10:49;;;;;;;;;;;;;;;;;;5017383;28;20016;-57
2022/10/24 16:13:15;;;;;;;;;;;;;;;;;;5025083;28;19928;-56
2022/10/24 16:15:41;;;;;;;;;;;;;;;;;;5025584;28;19925;-57
2022/10/24 16:18:07;;;;;;;;;;;;;;;;;;5025380;28;20023;-56
2022/10/24 16:20:33;;;;;;;;;;;;;;;;;;5024845;28;20012;-57
2022/10/24 16:22:59;;;;;;;;;;;;;;;;;;5026173;28;19983;-57
2022/10/24 16:25:25;;;;;;;;;;;;;;;;;;5025160;28;19929;-57
2022/10/24 16:27:51;;;;;;;;;;;;;;;;;;5026242;28;20298;-57
2022/10/24 16:30:17;;;;;;;;;;;;;;;;;;5023020;28;20024;-56
2022/10/24 16:32:43;;;;;;;;;;;;;;;;;;5016652;28;19959;-57
2022/10/24 16:35:09;;;;;;;;;;;;;;;;;;5023533;28;20032;-56
2022/10/24 16:37:35;;;;;;;;;;;;;;;;;;5023490;28;19929;-56